首页
METAR-TAF:

METAR-TAF

机场 :

薩尼亞, 安大略省, 加拿大

纬度: 43-00N, 经度: 082-19W, 海拔: 181米

当前天气观测

该预报发布于46分钟前的21:00 UTC
风速16节,风向西南,有时为25节阵风
温度 27°C
湿度 62%
气压 1005 hPa
能見度: 14.5公里
散云层高于6000英尺
散云层高于7100英尺

METAR: CYZR 182100Z AUTO 23016G25KT 9SM SCT060 SCT071 27/19 A2969 RMK SLP053 DENSITY ALT 2400FT

时间: 17:46 (21:46 UTC)

预报

该预报发布于2小时和5分钟前的19:41 UTC
预报有效从18日的 20点(UTC)到 19日的 02点(UTC)
风速12节,风向西南,有时为22节阵风
能見度: 10公里
散云层高于4000英尺
阴天层高于8000英尺
短暂存在
从 18日的 20点(UTC)到 18日的 23点(UTC)
多云层高于2000英尺
阴天层高于4000英尺
从 18日的 2300点(UTC)
风速8节,风向西
能見度: 10公里
少量云层高于4000英尺

TAF: CYZR 181941Z 1820/1902 22012G22KT P6SM SCT040 OVC080 TEMPO 1820/1823 BKN020 OVC040 FM182300 26008KT P6SM FEW040 RMK FCST BASED ON AUTO OBS. NXT FCST WILL BE ISSUED AT 190745Z

超过4000个机场的气象观测和天气预报(METAR&TAF报告)。

可查询的气象台以黄色和红色小点在地图上表示。

将鼠标移到小点上方,可查看气象台名称。

然后点击查看天气观测和预报。

如需切换地图:点击带黑十字的绿色按钮放大地图;点击带横线的绿色按钮缩小地图;或者点击绿色箭头查看邻近地区的地图。


METAR-TAF: